createdAt,value
2023-04-22T00:01:38.116Z,14.70
2023-04-22T00:04:05.374Z,14.60
2023-04-22T00:06:32.513Z,14.60
2023-04-22T00:08:59.389Z,14.60
2023-04-22T00:11:26.546Z,14.50
2023-04-22T00:13:53.606Z,14.50
2023-04-22T00:16:21.554Z,14.50
2023-04-22T00:18:48.906Z,14.50
2023-04-22T00:21:15.793Z,14.40
2023-04-22T00:23:45.179Z,14.40
2023-04-22T00:26:12.235Z,14.40
2023-04-22T00:28:39.463Z,14.30
2023-04-22T00:31:06.533Z,14.30
2023-04-22T00:33:33.375Z,14.30
2023-04-22T00:36:00.350Z,14.20
2023-04-22T00:38:27.227Z,14.20
2023-04-22T00:43:34.841Z,14.10
2023-04-22T00:46:02.349Z,14.10
2023-04-22T00:48:29.720Z,14.00
2023-04-22T00:50:56.545Z,13.90
2023-04-22T00:53:23.364Z,13.90
2023-04-22T00:55:50.727Z,13.90
2023-04-22T00:58:21.415Z,13.80
2023-04-22T01:00:48.278Z,13.80
2023-04-22T01:03:15.961Z,13.80
2023-04-22T01:05:43.584Z,13.70
2023-04-22T01:08:10.513Z,13.70
2023-04-22T01:10:37.811Z,13.70
2023-04-22T01:13:04.634Z,13.70
2023-04-22T01:15:31.636Z,13.70
2023-04-22T01:18:00.695Z,13.70
2023-04-22T01:20:29.679Z,13.60
2023-04-22T01:22:58.481Z,13.60
2023-04-22T01:25:26.878Z,13.60
2023-04-22T01:27:55.200Z,13.60
2023-04-22T01:30:22.244Z,13.50
2023-04-22T01:32:49.758Z,13.50
2023-04-22T01:35:16.612Z,13.50
2023-04-22T01:37:43.517Z,13.40
2023-04-22T01:40:11.735Z,13.40
2023-04-22T01:42:39.116Z,13.40
2023-04-22T01:45:07.223Z,13.40
2023-04-22T01:47:34.060Z,13.30
2023-04-22T01:50:00.911Z,13.30
2023-04-22T01:52:27.906Z,13.30
2023-04-22T01:54:55.437Z,13.20
2023-04-22T01:57:22.306Z,13.20
2023-04-22T01:59:49.166Z,13.20
2023-04-22T02:02:16.186Z,13.20
2023-04-22T02:04:43.319Z,13.10
2023-04-22T02:07:10.211Z,13.10
2023-04-22T02:09:37.247Z,13.10
2023-04-22T02:12:04.481Z,13.00
2023-04-22T02:14:31.303Z,13.00
2023-04-22T02:16:58.409Z,13.00
2023-04-22T02:19:25.490Z,13.00
2023-04-22T02:21:52.685Z,13.00
2023-04-22T02:24:19.859Z,13.10
2023-04-22T02:26:47.660Z,13.10
2023-04-22T02:29:14.882Z,13.10
2023-04-22T02:31:42.249Z,13.10
2023-04-22T02:34:09.221Z,13.10
2023-04-22T02:36:36.278Z,13.10
2023-04-22T02:39:04.464Z,13.10
2023-04-22T02:41:31.465Z,13.10
2023-04-22T02:43:58.302Z,13.00
2023-04-22T02:46:25.224Z,13.00
2023-04-22T02:48:52.153Z,13.00
2023-04-22T02:51:19.334Z,13.00
2023-04-22T02:53:48.694Z,12.90
2023-04-22T02:56:15.671Z,12.90
2023-04-22T02:58:42.904Z,12.90
2023-04-22T03:01:09.901Z,12.80
2023-04-22T03:03:36.949Z,12.80
2023-04-22T03:06:04.107Z,12.80
2023-04-22T03:08:31.052Z,12.70
2023-04-22T03:10:57.908Z,12.70
2023-04-22T03:13:24.748Z,12.60
2023-04-22T03:15:51.745Z,12.60
2023-04-22T03:18:18.609Z,12.60
2023-04-22T03:20:45.497Z,12.60
2023-04-22T03:23:12.553Z,12.60
2023-04-22T03:25:39.358Z,12.50
2023-04-22T03:28:06.170Z,12.50
2023-04-22T03:30:33.054Z,12.50
2023-04-22T03:32:59.950Z,12.50
2023-04-22T03:35:26.796Z,12.50
2023-04-22T03:37:54.014Z,12.50
2023-04-22T03:40:21.000Z,12.50
2023-04-22T03:42:47.894Z,12.40
2023-04-22T03:45:15.246Z,12.40
2023-04-22T03:47:42.100Z,12.40
2023-04-22T03:50:09.661Z,12.30
2023-04-22T03:52:36.504Z,12.30
2023-04-22T03:55:03.598Z,12.30
2023-04-22T03:57:30.430Z,12.30
2023-04-22T03:59:57.342Z,12.30
2023-04-22T04:02:24.479Z,12.30
2023-04-22T04:04:51.798Z,12.30
2023-04-22T04:07:19.166Z,12.30
2023-04-22T04:09:46.382Z,12.20
2023-04-22T04:12:13.288Z,12.20
2023-04-22T04:14:40.229Z,12.20
2023-04-22T04:17:09.289Z,12.20
2023-04-22T04:19:39.338Z,12.20
2023-04-22T04:22:06.911Z,12.20
2023-04-22T04:24:33.908Z,12.10
2023-04-22T04:27:00.848Z,12.10
2023-04-22T04:29:27.696Z,12.10
2023-04-22T04:31:55.198Z,12.00
2023-04-22T04:34:22.876Z,11.90
2023-04-22T04:36:49.813Z,12.00
2023-04-22T04:39:18.977Z,12.00
2023-04-22T04:41:45.903Z,11.90
2023-04-22T04:44:12.733Z,11.90
2023-04-22T04:46:39.774Z,11.90
2023-04-22T04:49:09.482Z,11.90
2023-04-22T04:51:36.279Z,11.90
2023-04-22T04:54:03.246Z,11.90
2023-04-22T04:56:30.947Z,11.90
2023-04-22T04:58:57.768Z,11.90
2023-04-22T05:01:24.682Z,11.90
2023-04-22T05:03:51.900Z,12.00
2023-04-22T05:06:19.129Z,12.00
2023-04-22T05:08:46.272Z,12.00
2023-04-22T05:11:13.361Z,11.90
2023-04-22T05:13:40.388Z,12.00
2023-04-22T05:16:07.393Z,12.00
2023-04-22T05:18:34.456Z,12.00
2023-04-22T05:21:04.131Z,12.00
2023-04-22T05:23:30.983Z,12.00
2023-04-22T05:25:58.500Z,11.90
2023-04-22T05:28:25.640Z,11.90
2023-04-22T05:30:52.539Z,11.90
2023-04-22T05:33:19.507Z,11.90
2023-04-22T05:35:46.504Z,11.90
2023-04-22T05:38:13.323Z,11.90
2023-04-22T05:40:40.568Z,11.90
2023-04-22T05:43:07.474Z,11.90
2023-04-22T05:45:34.634Z,11.90
2023-04-22T05:48:01.594Z,11.90
2023-04-22T05:50:28.503Z,12.00
2023-04-22T05:52:55.475Z,12.00
2023-04-22T05:55:22.332Z,12.00
2023-04-22T05:57:49.342Z,12.00
2023-04-22T06:00:17.320Z,12.00
2023-04-22T06:02:44.386Z,12.00
2023-04-22T06:05:11.417Z,12.10
2023-04-22T06:07:38.304Z,12.10
2023-04-22T06:10:05.901Z,12.10
2023-04-22T06:12:34.081Z,12.20
2023-04-22T06:15:01.149Z,12.20
2023-04-22T06:17:28.200Z,12.30
2023-04-22T06:19:55.218Z,12.30
2023-04-22T06:22:22.407Z,12.40
2023-04-22T06:24:49.266Z,12.40
2023-04-22T06:27:16.126Z,12.50
2023-04-22T06:29:43.022Z,12.50
2023-04-22T06:32:09.859Z,12.60
2023-04-22T06:34:38.867Z,12.70
2023-04-22T06:37:06.247Z,12.80
2023-04-22T06:39:33.215Z,12.80
2023-04-22T06:42:01.466Z,13.00
2023-04-22T06:44:29.333Z,13.10
2023-04-22T06:46:57.947Z,13.20
2023-04-22T06:49:25.371Z,13.30
2023-04-22T06:51:52.372Z,13.50
2023-04-22T06:54:19.341Z,13.60
2023-04-22T06:56:46.271Z,13.70
2023-04-22T06:59:13.315Z,13.90
2023-04-22T07:01:40.153Z,14.00
2023-04-22T07:04:07.052Z,14.10
2023-04-22T07:06:34.184Z,14.30
2023-04-22T07:09:01.021Z,14.40
2023-04-22T07:11:28.004Z,14.50
2023-04-22T07:13:54.893Z,14.60
2023-04-22T07:16:21.800Z,14.80
2023-04-22T07:18:49.126Z,14.90
2023-04-22T07:21:16.050Z,15.00
2023-04-22T07:23:42.995Z,15.10
2023-04-22T07:26:09.837Z,15.20
2023-04-22T07:28:38.102Z,15.30
2023-04-22T07:31:05.267Z,15.40
2023-04-22T07:33:32.168Z,15.50
2023-04-22T07:35:59.188Z,15.70
2023-04-22T07:38:26.365Z,15.80
2023-04-22T07:47:48.572Z,16.20
2023-04-22T07:50:16.000Z,16.40
2023-04-22T07:52:42.910Z,16.50
2023-04-22T07:55:10.015Z,16.70
2023-04-22T07:57:38.890Z,16.80
2023-04-22T08:00:10.782Z,17.00
2023-04-22T08:02:37.872Z,17.10
2023-04-22T08:05:05.445Z,17.20
2023-04-22T08:07:33.626Z,17.40
2023-04-22T08:10:00.852Z,17.40
2023-04-22T08:12:27.846Z,17.60
2023-04-22T08:14:54.786Z,17.70
2023-04-22T08:17:22.288Z,17.80
2023-04-22T08:19:49.794Z,17.90
2023-04-22T08:22:18.586Z,18.00
2023-04-22T08:24:45.607Z,18.10
2023-04-22T08:27:13.224Z,18.10
2023-04-22T08:29:41.104Z,18.20
2023-04-22T08:32:08.230Z,18.30
2023-04-22T08:34:35.288Z,18.40
2023-04-22T08:37:02.962Z,18.50
2023-04-22T08:39:33.061Z,18.60
2023-04-22T08:42:00.100Z,18.70
2023-04-22T08:44:27.771Z,18.70
2023-04-22T09:03:26.416Z,19.30
2023-04-22T09:06:14.571Z,19.40
2023-04-22T09:08:47.402Z,19.60
2023-04-22T09:11:14.337Z,19.80
2023-04-22T09:13:46.136Z,19.90
